Terminal Aerodrome Forecast
Issued by NWS

Home | Current Version | Previous Version | Text Only | Print | Product List | Glossary On
Versions: 1 2 3 4 5 6 7 8 9 10 11 12 13 14 15 16 17 18 19 20
000
FTUS42 KTBW 190534
TAFPGD
TAF
KPGD 190534Z 1906/2006 VRB04KT P6SM FEW050 SCT250
      TEMPO 1906/1910 2SM BR SCT010
     FM191400 13005KT P6SM SCT030 SCT250
     FM191800 22008KT P6SM SCT040 SCT250=

USA.gov is the U.S. government's official web portal to all federal, state and local government web resources and services.